Archival Weather

Dallas-Fort Worth Intl

Dallas-Fort Worth, Texas (KDFW)

Report from: Thursday, September 21, 2023 4:53 AM CDT
Current time: Friday, February 23, 2024 2:37 PM CST

Current weather – Weather history – Daily summaries
Weather forecast

Temperature26.1°C (79.0°F)
Dew point19.4°C (66.9°F)
Winds 9 kts (4.6 m/s, 10.4 mph) South (180°)
Visibility10 mi. (16.1 km)
Clouds Few clouds 15,000 ft. (4,572 m)
Ceiling: Broken clouds 25,000 ft. (7,620 m)
Altimeter29.91 in.Hg (1013 mB)
Relative humidity67 %
Density altitude1,630 ft. (497 m)
Sea-level pressure101.2 kPa (1012 mB, 29.88 in.Hg)
Remarks Automated weather observing station with precipitation discriminator
Flight conditions Visual Meteorological Conditions
Raw dataKDFW 210953Z 18009KT 10SM FEW150 BKN250 26/19 A2991 RMK AO2 SLP120 T02610194
An error has occurred. This application may no longer respond until reloaded. Reload 🗙